Time;durP1;ratioP1;P1;durP2;ratioP2;P2;SDS_P1;SDS_P2;PMS_P1;PMS_P2;Temp;Humidity;BMP_temperature;BMP_pressure;BME280_temperature;BME280_humidity;BME280_pressure;Samples;Min_cycle;Max_cycle;Signal;HPM_P1;HPM_P2
2022/02/04 00:05:50;;;;;;;20.55;15.10;;;6.60;1.00;;;;;;4923095;28;20317;-79
2022/02/04 00:08:47;;;;;;;24.17;16.55;;;6.60;1.00;;;;;;4941066;28;20253;-79
2022/02/04 00:22:39;;;;;;;21.45;14.68;;;6.70;1.00;;;;;;4948280;28;20237;-80
2022/02/04 00:25:15;;;;;;;18.25;13.70;;;6.80;1.00;;;;;;4942763;28;20249;-80
2022/02/04 00:27:43;;;;;;;18.60;13.85;;;6.90;1.00;;;;;;4942729;28;20222;-78
2022/02/04 00:30:16;;;;;;;21.15;15.27;;;6.90;1.00;;;;;;4941404;28;20668;-79
2022/02/04 00:32:45;;;;;;;20.70;14.73;;;6.90;1.00;;;;;;4942777;28;20234;-79
2022/02/04 00:35:21;;;;;;;18.20;13.48;;;6.90;1.00;;;;;;4939340;28;20261;-79
2022/02/04 00:37:57;;;;;;;21.42;14.73;;;6.90;1.00;;;;;;4944870;28;20218;-79
2022/02/04 00:40:27;;;;;;;21.17;14.75;;;6.90;1.00;;;;;;4943446;28;20230;-79
2022/02/04 00:42:59;;;;;;;24.10;15.27;;;7.00;1.00;;;;;;4947742;28;20324;-79
2022/02/04 00:45:31;;;;;;;21.60;14.40;;;7.00;1.00;;;;;;4942659;28;20249;-79
2022/02/04 00:48:08;;;;;;;22.30;15.70;;;6.90;1.00;;;;;;4948519;28;20258;-79
2022/02/04 00:50:49;;;;;;;21.30;15.77;;;6.90;1.00;;;;;;4945319;28;20235;-80
2022/02/04 00:53:22;;;;;;;23.35;17.65;;;6.90;1.00;;;;;;4952361;28;20230;-80
2022/02/04 00:56:03;;;;;;;22.10;15.65;;;6.90;1.00;;;;;;4951941;28;20218;-80
2022/02/04 01:26:03;;;;;;;25.88;18.10;;;6.80;1.00;;;;;;4962669;28;21001;-78
2022/02/04 01:28:31;;;;;;;25.85;18.52;;;6.70;1.00;;;;;;4961135;28;20277;-78
2022/02/04 01:31:00;;;;;;;24.25;18.30;;;6.80;1.00;;;;;;4958617;28;20233;-78
2022/02/04 01:33:34;;;;;;;23.88;17.77;;;6.80;1.00;;;;;;4973622;28;20230;-79
2022/02/04 01:36:01;;;;;;;27.50;19.90;;;6.80;1.00;;;;;;4966159;28;20216;-79
2022/02/04 01:38:29;;;;;;;26.70;19.30;;;6.80;1.00;;;;;;4972354;28;20205;-78
2022/02/04 01:40:58;;;;;;;25.23;18.70;;;6.70;1.00;;;;;;4970437;28;20228;-78
2022/02/04 01:43:25;;;;;;;24.50;17.27;;;6.70;1.00;;;;;;4970031;28;20214;-79
2022/02/04 01:45:53;;;;;;;22.98;18.13;;;6.70;1.00;;;;;;4969476;28;20267;-78
2022/02/04 01:48:22;;;;;;;23.25;17.38;;;6.60;1.00;;;;;;4977942;28;20209;-78
2022/02/04 01:56:33;;;;;;;27.85;18.85;;;6.60;1.00;;;;;;4971564;28;20278;-79
2022/02/04 01:59:00;;;;;;;26.65;19.52;;;6.70;1.00;;;;;;4963593;28;20303;-79
2022/02/04 02:01:27;;;;;;;26.58;16.95;;;6.70;1.00;;;;;;4969507;28;20528;-78
2022/02/04 02:03:57;;;;;;;29.40;19.00;;;6.70;1.00;;;;;;4975820;28;20210;-78
2022/02/04 02:06:49;;;;;;;27.02;17.75;;;6.70;1.00;;;;;;4969636;28;20968;-77
2022/02/04 02:09:17;;;;;;;25.23;18.48;;;6.70;1.00;;;;;;4968637;28;20209;-78
2022/02/04 02:11:46;;;;;;;27.08;17.10;;;6.70;1.00;;;;;;4974661;28;20277;-78
2022/02/04 02:14:15;;;;;;;27.73;17.70;;;6.70;1.00;;;;;;4972104;28;20232;-79
2022/02/04 02:36:19;;;;;;;27.65;18.55;;;6.50;1.00;;;;;;4941271;28;20248;-79
2022/02/04 02:44:34;;;;;;;28.83;18.88;;;6.50;1.00;;;;;;4951677;28;20267;-79
2022/02/04 02:47:21;;;;;;;29.27;20.35;;;6.50;1.00;;;;;;4958006;28;20294;-79
2022/02/04 02:50:12;;;;;;;27.85;19.17;;;6.50;1.00;;;;;;4958695;28;20848;-78
2022/02/04 02:53:00;;;;;;;27.67;19.35;;;6.60;1.00;;;;;;4960209;28;20201;-78
2022/02/04 02:55:35;;;;;;;26.20;18.73;;;6.50;1.00;;;;;;4950932;28;20229;-78
2022/02/04 02:58:08;;;;;;;27.65;19.10;;;6.40;1.00;;;;;;4967834;28;20224;-79
2022/02/04 03:00:48;;;;;;;30.30;20.38;;;6.50;1.00;;;;;;4960453;28;20268;-79
2022/02/04 03:03:17;;;;;;;27.95;18.60;;;6.40;1.00;;;;;;4955505;28;20460;-79
2022/02/04 03:05:43;;;;;;;27.92;19.20;;;6.50;1.00;;;;;;4966352;28;20241;-78
2022/02/04 03:08:11;;;;;;;29.52;20.08;;;6.50;1.00;;;;;;4968602;28;20224;-79
2022/02/04 03:10:39;;;;;;;28.88;19.73;;;6.40;1.00;;;;;;4954469;28;20244;-79
2022/02/04 03:13:07;;;;;;;26.58;20.02;;;6.40;1.00;;;;;;4953269;28;20310;-79
2022/02/04 03:15:34;;;;;;;27.42;20.33;;;6.50;1.00;;;;;;4960468;28;20249;-79
2022/02/04 03:18:04;;;;;;;27.95;19.10;;;6.50;1.00;;;;;;4966704;28;20217;-79
2022/02/04 03:20:40;;;;;;;29.73;18.50;;;6.40;1.00;;;;;;4955476;28;20225;-79
2022/02/04 03:23:08;;;;;;;29.25;19.02;;;6.40;1.00;;;;;;4969295;28;20217;-80
2022/02/04 03:25:40;;;;;;;27.58;19.33;;;6.40;1.00;;;;;;4950281;28;20426;-79
2022/02/04 03:28:13;;;;;;;25.60;18.38;;;6.30;1.00;;;;;;4966008;28;20213;-80
2022/02/04 03:30:41;;;;;;;26.17;17.80;;;6.30;1.00;;;;;;4969244;28;20253;-80
2022/02/04 03:33:09;;;;;;;27.48;19.23;;;6.30;1.00;;;;;;4967628;28;20220;-78
2022/02/04 03:35:36;;;;;;;27.10;17.83;;;6.30;1.00;;;;;;4954008;28;20273;-78
2022/02/04 03:38:03;;;;;;;29.10;18.73;;;6.30;1.00;;;;;;4963350;28;20277;-78
2022/02/04 03:40:29;;;;;;;25.58;18.90;;;6.30;1.00;;;;;;4959130;28;20225;-78
2022/02/04 03:42:56;;;;;;;25.52;18.73;;;6.20;1.00;;;;;;4970356;28;20252;-78
2022/02/04 03:45:25;;;;;;;27.73;19.55;;;6.30;1.00;;;;;;4974132;28;20221;-78
2022/02/04 03:47:51;;;;;;;28.38;18.88;;;6.30;1.00;;;;;;4955325;28;20231;-79
2022/02/04 03:50:21;;;;;;;26.67;19.08;;;6.30;1.00;;;;;;4956536;28;20248;-79
2022/02/04 03:52:47;;;;;;;32.42;20.27;;;6.30;1.00;;;;;;4957805;28;20223;-79
2022/02/04 03:55:15;;;;;;;27.05;19.35;;;6.30;1.00;;;;;;4965039;28;20248;-79
2022/02/04 03:57:42;;;;;;;24.73;18.92;;;6.40;1.00;;;;;;4958455;28;20233;-79
2022/02/04 04:00:12;;;;;;;27.70;18.40;;;6.40;1.00;;;;;;4950491;28;20247;-79
2022/02/04 04:02:40;;;;;;;28.30;18.77;;;6.40;1.00;;;;;;4952227;28;20215;-79
2022/02/04 04:05:08;;;;;;;28.35;17.95;;;6.50;1.00;;;;;;4958362;28;20324;-78
2022/02/04 04:07:40;;;;;;;26.40;18.00;;;6.50;1.00;;;;;;4958869;28;20285;-79
2022/02/04 04:10:11;;;;;;;26.42;18.15;;;6.40;1.00;;;;;;4939587;28;20240;-78
2022/02/04 04:12:38;;;;;;;25.73;17.70;;;6.40;1.00;;;;;;4937216;28;20268;-78
2022/02/04 04:15:07;;;;;;;23.73;17.08;;;6.40;1.00;;;;;;4934687;28;20221;-79
2022/02/04 04:17:39;;;;;;;30.58;20.40;;;6.40;1.00;;;;;;4941907;28;20225;-79
2022/02/04 04:20:09;;;;;;;25.00;18.00;;;6.40;1.00;;;;;;4942908;28;22037;-79
2022/02/04 04:22:36;;;;;;;24.73;18.20;;;6.40;1.00;;;;;;4939371;28;20340;-78
2022/02/04 04:25:04;;;;;;;25.90;18.25;;;6.50;1.00;;;;;;4933402;28;20225;-78
2022/02/04 04:27:31;;;;;;;25.55;17.83;;;6.50;1.00;;;;;;4939894;28;20255;-79
2022/02/04 04:29:58;;;;;;;27.00;18.30;;;6.40;1.00;;;;;;4941896;28;20233;-78
2022/02/04 04:32:25;;;;;;;26.30;18.38;;;6.50;1.00;;;;;;4935560;28;20226;-79
2022/02/04 04:34:52;;;;;;;31.92;20.40;;;6.50;1.00;;;;;;4933889;28;20232;-78
2022/02/04 04:37:21;;;;;;;27.55;19.40;;;6.50;1.00;;;;;;4934844;28;20222;-79
2022/02/04 04:39:58;;;;;;;27.88;18.45;;;6.50;1.00;;;;;;4933316;28;20236;-77
2022/02/04 04:42:38;;;;;;;25.70;17.85;;;6.50;1.00;;;;;;4939894;28;20216;-78
2022/02/04 04:45:37;;;;;;;23.20;16.85;;;6.50;1.00;;;;;;4939726;28;20221;-78
2022/02/04 05:27:31;;;;;;;28.10;17.23;;;6.60;1.00;;;;;;4936663;28;20245;-79
2022/02/04 05:29:45;;;;;;;24.55;17.40;;;6.50;1.00;;;;;;4940380;28;20233;-78
2022/02/04 05:32:12;;;;;;;23.10;16.83;;;6.50;1.00;;;;;;4945598;28;21438;-79
2022/02/04 05:34:39;;;;;;;25.80;18.35;;;6.50;1.00;;;;;;4944352;28;20272;-79
2022/02/04 05:37:08;;;;;;;27.58;18.73;;;6.50;1.00;;;;;;4944796;28;20237;-80
2022/02/04 05:39:40;;;;;;;22.85;16.40;;;6.50;1.00;;;;;;4937535;28;20241;-79
2022/02/04 05:42:12;;;;;;;27.75;18.67;;;6.50;1.00;;;;;;4936722;28;20582;-79
2022/02/04 05:44:42;;;;;;;24.42;17.00;;;6.60;1.00;;;;;;4937480;28;20945;-81
2022/02/04 05:47:15;;;;;;;21.55;16.10;;;6.50;1.00;;;;;;4942441;28;20233;-79
2022/02/04 05:49:49;;;;;;;23.52;16.63;;;6.50;1.00;;;;;;4938075;28;20288;-79
2022/02/04 05:52:22;;;;;;;24.48;17.52;;;6.50;1.00;;;;;;4923850;28;20230;-79
2022/02/04 05:55:02;;;;;;;23.33;17.20;;;6.50;1.00;;;;;;4941046;28;20228;-80
2022/02/04 05:57:46;;;;;;;25.63;18.58;;;6.40;1.00;;;;;;4942609;28;20224;-79
2022/02/04 06:00:25;;;;;;;28.00;18.60;;;6.40;1.00;;;;;;4936730;28;20232;-80
2022/02/04 06:03:10;;;;;;;29.30;18.67;;;6.40;1.00;;;;;;4944636;28;20952;-81
2022/02/04 06:05:54;;;;;;;24.10;16.98;;;6.40;1.00;;;;;;4936888;28;20307;-80
2022/02/04 06:08:41;;;;;;;24.10;16.98;;;6.40;1.00;;;;;;4937303;28;20239;-81
2022/02/04 06:11:25;;;;;;;28.30;17.30;;;6.50;1.00;;;;;;4926785;28;20835;-85
2022/02/04 06:14:11;;;;;;;28.92;20.60;;;6.50;1.00;;;;;;4941275;28;20699;-86
2022/02/04 06:22:12;;;;;;;29.08;19.00;;;6.50;1.00;;;;;;4950338;28;20227;-85
2022/02/04 06:24:39;;;;;;;27.60;17.15;;;6.50;1.00;;;;;;4925736;28;20228;-85
2022/02/04 06:27:07;;;;;;;26.63;17.98;;;6.50;1.00;;;;;;4946670;28;20255;-86
2022/02/04 06:29:35;;;;;;;24.33;17.50;;;6.50;1.00;;;;;;4919855;28;20237;-86
2022/02/04 06:32:02;;;;;;;26.92;18.23;;;6.50;1.00;;;;;;4949612;28;20228;-86
2022/02/04 06:34:29;;;;;;;23.13;17.33;;;6.50;1.00;;;;;;4948720;28;20293;-86
2022/02/04 06:36:57;;;;;;;26.67;18.00;;;6.60;1.00;;;;;;4936861;28;20232;-86
2022/02/04 06:39:23;;;;;;;23.85;16.58;;;6.60;1.00;;;;;;4951070;28;20288;-86
2022/02/04 06:41:50;;;;;;;25.15;18.17;;;6.50;1.00;;;;;;4956409;28;20241;-85
2022/02/04 06:44:19;;;;;;;23.40;17.65;;;6.60;1.00;;;;;;4958492;28;20309;-87
2022/02/04 06:46:47;;;;;;;24.95;18.02;;;6.60;1.00;;;;;;4950957;28;20228;-84
2022/02/04 06:49:14;;;;;;;25.30;17.88;;;6.50;1.00;;;;;;4945146;28;21285;-85
2022/02/04 06:51:42;;;;;;;27.35;17.58;;;6.50;1.00;;;;;;4945256;28;20360;-88
2022/02/04 06:54:12;;;;;;;24.38;17.80;;;6.60;1.00;;;;;;4947584;28;20237;-90
2022/02/04 06:56:40;;;;;;;28.98;18.95;;;6.60;1.00;;;;;;4935676;28;20268;-90
2022/02/04 06:59:12;;;;;;;23.65;17.10;;;6.60;1.00;;;;;;4949777;28;20225;-89
2022/02/04 07:01:39;;;;;;;24.95;17.98;;;6.60;1.00;;;;;;4942565;28;20225;-88
2022/02/04 07:04:09;;;;;;;23.05;16.92;;;6.60;1.00;;;;;;4925175;28;20347;-87
2022/02/04 07:06:53;;;;;;;25.05;17.23;;;6.70;1.00;;;;;;4952517;28;20224;-91
2022/02/04 07:09:54;;;;;;;25.50;17.58;;;6.70;1.00;;;;;;4933024;28;20237;-89
2022/02/04 07:12:35;;;;;;;22.60;17.55;;;6.60;1.00;;;;;;4952898;28;20225;-89
2022/02/04 07:15:39;;;;;;;25.83;16.73;;;6.60;1.00;;;;;;4953729;28;20232;-88
2022/02/04 07:20:49;;;;;;;25.67;17.08;;;6.60;1.00;;;;;;4952509;28;20217;-88
2022/02/04 07:23:17;;;;;;;23.45;16.80;;;6.60;1.00;;;;;;4959684;28;20228;-88
2022/02/04 07:25:46;;;;;;;26.35;20.30;;;6.70;1.00;;;;;;4960742;28;20229;-88
2022/02/04 07:28:14;;;;;;;23.55;17.02;;;6.80;1.00;;;;;;4952091;28;20247;-90
2022/02/04 07:30:43;;;;;;;23.75;16.88;;;6.80;1.00;;;;;;4939538;28;20271;-87
2022/02/04 07:33:16;;;;;;;26.60;18.33;;;6.80;1.00;;;;;;4936590;28;20220;-87
2022/02/04 07:40:53;;;;;;;30.50;19.67;;;6.80;1.00;;;;;;4955468;28;20252;-89
2022/02/04 07:42:03;;;;;;;28.80;18.98;;;6.70;1.00;;;;;;4941094;28;20988;-90
2022/02/04 07:44:45;;;;;;;24.67;17.67;;;6.70;1.00;;;;;;4956105;28;20231;-88
2022/02/04 08:00:21;;;;;;;24.50;17.98;;;7.00;1.00;;;;;;4966313;23;22148;-89
2022/02/04 08:02:54;;;;;;;27.92;17.52;;;7.00;1.00;;;;;;4947905;28;20226;-88
2022/02/04 08:05:27;;;;;;;21.85;16.40;;;7.10;1.00;;;;;;4949753;28;20269;-87
2022/02/04 08:08:00;;;;;;;25.92;18.77;;;7.10;1.00;;;;;;4933560;28;20264;-88
2022/02/04 08:10:31;;;;;;;26.23;18.77;;;7.10;1.00;;;;;;4940183;28;20237;-87
2022/02/04 08:13:29;;;;;;;25.80;18.77;;;7.10;1.00;;;;;;4921062;28;20221;-89
2022/02/04 08:22:22;;;;;;;19.17;15.15;;;7.10;1.00;;;;;;4880656;29;20460;-86
2022/02/04 08:33:51;;;;;;;16.63;12.75;;;7.20;1.00;;;;;;4890113;28;20277;-86
2022/02/04 08:36:49;;;;;;;18.30;13.05;;;7.10;1.00;;;;;;4935165;28;20240;-87
2022/02/04 08:39:49;;;;;;;12.07;9.80;;;7.10;1.00;;;;;;4944167;28;20217;-88
2022/02/04 08:48:10;;;;;;;14.18;11.20;;;7.30;1.00;;;;;;4947605;28;20294;-87
2022/02/04 08:56:15;;;;;;;14.65;11.07;;;7.40;1.00;;;;;;4932532;28;20395;-89
2022/02/04 08:58:48;;;;;;;10.73;9.05;;;7.40;1.00;;;;;;4934078;28;20329;-86
2022/02/04 09:01:24;;;;;;;14.63;10.93;;;7.40;1.00;;;;;;4920247;28;20264;-89
2022/02/04 09:04:05;;;;;;;14.73;10.70;;;7.40;1.00;;;;;;4937040;28;20234;-88
2022/02/04 09:06:39;;;;;;;13.77;11.20;;;7.40;1.00;;;;;;4916668;29;20253;-87
2022/02/04 09:09:14;;;;;;;13.73;10.60;;;7.40;1.00;;;;;;4930087;28;20205;-89
2022/02/04 09:11:46;;;;;;;16.92;10.70;;;7.40;1.00;;;;;;4912232;29;21099;-86
2022/02/04 09:17:48;;;;;;;12.73;9.52;;;7.40;1.00;;;;;;4909368;28;20241;-87
2022/02/04 09:23:47;;;;;;;12.05;10.15;;;7.40;1.00;;;;;;4944885;28;20236;-88
2022/02/04 09:26:41;;;;;;;12.25;8.65;;;7.40;1.00;;;;;;4939141;28;20242;-88
2022/02/04 09:29:17;;;;;;;11.82;9.65;;;7.40;1.00;;;;;;4941882;28;20222;-87
2022/02/04 09:31:46;;;;;;;12.90;10.43;;;7.30;1.00;;;;;;4920582;28;20272;-88
2022/02/04 09:34:18;;;;;;;14.60;11.27;;;7.30;1.00;;;;;;4941438;28;20238;-88
2022/02/04 09:36:46;;;;;;;13.10;10.77;;;7.30;1.00;;;;;;4927153;28;20225;-87
2022/02/04 09:39:19;;;;;;;14.07;10.65;;;7.30;1.00;;;;;;4939368;28;20234;-86
2022/02/04 09:42:11;;;;;;;13.25;11.00;;;7.30;1.00;;;;;;4940856;28;20228;-89
2022/02/04 09:45:18;;;;;;;14.20;11.77;;;7.30;1.00;;;;;;4920925;29;20290;-89
2022/02/04 09:48:01;;;;;;;16.05;11.27;;;7.20;1.00;;;;;;4901656;29;20233;-86
2022/02/04 09:50:33;;;;;;;12.40;9.35;;;7.20;1.00;;;;;;4908578;28;20264;-88
2022/02/04 10:11:02;;;;;;;13.60;10.52;;;7.30;1.00;;;;;;4865407;29;20947;-88
2022/02/04 10:13:51;;;;;;;18.95;12.57;;;7.30;1.00;;;;;;4877787;29;20279;-86
2022/02/04 10:19:22;;;;;;;16.50;11.30;;;7.40;1.00;;;;;;4857365;28;20247;-88
2022/02/04 10:21:57;;;;;;;14.45;11.27;;;7.40;1.00;;;;;;4919355;28;20419;-86
2022/02/04 10:24:26;;;;;;;16.05;12.95;;;7.30;1.00;;;;;;4915109;28;20732;-84
2022/02/04 10:27:13;;;;;;;19.05;12.88;;;7.30;1.00;;;;;;4919064;28;20268;-84
2022/02/04 10:29:43;;;;;;;17.95;12.02;;;7.40;1.00;;;;;;4897510;28;20817;-83
2022/02/04 10:32:12;;;;;;;18.02;12.73;;;7.40;1.00;;;;;;4918774;28;20285;-84
2022/02/04 10:34:41;;;;;;;17.83;13.02;;;7.50;1.00;;;;;;4917434;28;20316;-84
2022/02/04 10:37:24;;;;;;;13.90;11.23;;;7.50;1.00;;;;;;4926155;28;20239;-84
2022/02/04 10:40:00;;;;;;;16.70;11.68;;;7.60;1.00;;;;;;4926696;28;21068;-84
2022/02/04 10:42:36;;;;;;;16.50;11.40;;;7.60;1.00;;;;;;4937715;28;20220;-85
2022/02/04 10:51:27;;;;;;;12.63;9.20;;;7.60;1.00;;;;;;4870121;29;21044;-90
2022/02/04 10:55:06;;;;;;;14.45;11.20;;;7.60;1.00;;;;;;4934388;28;20233;-86
2022/02/04 11:00:26;;;;;;;11.63;8.63;;;7.70;1.00;;;;;;4933050;28;20249;-87
2022/02/04 11:03:05;;;;;;;13.10;9.98;;;7.90;1.00;;;;;;4919633;28;20357;-85
2022/02/04 11:05:49;;;;;;;12.00;8.70;;;8.10;1.00;;;;;;4911592;28;20300;-89
2022/02/04 11:11:39;;;;;;;14.48;9.93;;;8.10;1.00;;;;;;4891389;28;20333;-90
2022/02/04 11:31:20;;;;;;;12.40;9.30;;;8.80;1.00;;;;;;4923279;28;20363;-91
2022/02/04 11:43:43;;;;;;;13.77;10.63;;;8.80;1.00;;;;;;4925690;28;20251;-88
2022/02/04 11:51:53;;;;;;;14.80;10.00;;;9.00;1.00;;;;;;4915922;28;20233;-88
2022/02/04 11:54:43;;;;;;;16.40;10.90;;;9.00;1.00;;;;;;4936112;28;20228;-87
2022/02/04 11:57:28;;;;;;;11.63;8.90;;;9.20;1.00;;;;;;4926118;28;20522;-87
2022/02/04 12:00:08;;;;;;;11.60;9.40;;;9.10;1.00;;;;;;4923955;28;20484;-87
2022/02/04 12:02:51;;;;;;;12.32;8.80;;;9.00;1.00;;;;;;4912295;28;20238;-87
2022/02/04 12:05:39;;;;;;;11.55;9.05;;;8.90;1.00;;;;;;4916013;28;20270;-87
2022/02/04 12:08:33;;;;;;;9.53;8.07;;;8.90;1.00;;;;;;4917549;28;20272;-88
2022/02/04 12:11:23;;;;;;;10.50;8.20;;;8.90;1.00;;;;;;4913911;28;20585;-84
2022/02/04 12:14:12;;;;;;;13.43;9.80;;;8.90;1.00;;;;;;4929941;28;20642;-84
2022/02/04 12:17:08;;;;;;;12.37;9.63;;;9.00;1.00;;;;;;4914809;28;20265;-85
2022/02/04 12:19:46;;;;;;;18.00;11.60;;;9.00;1.00;;;;;;4900921;29;21327;-86
2022/02/04 12:23:03;;;;;;;10.93;8.93;;;9.00;1.00;;;;;;4913804;28;20224;-85
2022/02/04 12:26:06;;;;;;;8.38;7.05;;;9.20;1.00;;;;;;4918386;28;21080;-83
2022/02/04 12:28:54;;;;;;;9.90;7.63;;;9.30;1.00;;;;;;4927631;28;20236;-86
2022/02/04 12:31:25;;;;;;;8.03;7.23;;;9.50;1.00;;;;;;4923616;28;20431;-84
2022/02/04 12:33:55;;;;;;;9.30;6.73;;;9.40;1.00;;;;;;4917159;28;20480;-84
2022/02/04 12:36:26;;;;;;;10.53;7.10;;;9.50;1.00;;;;;;4924662;28;20461;-83
2022/02/04 12:38:55;;;;;;;14.23;6.80;;;9.50;1.00;;;;;;4928653;29;20421;-83
2022/02/04 12:41:24;;;;;;;6.63;5.47;;;9.50;1.00;;;;;;4929505;28;20472;-83
2022/02/04 12:43:58;;;;;;;7.70;6.53;;;9.50;1.00;;;;;;4936383;28;20608;-82
2022/02/04 12:46:28;;;;;;;7.78;6.53;;;9.40;1.00;;;;;;4922403;28;20502;-83
2022/02/04 12:49:05;;;;;;;9.40;6.63;;;9.10;1.00;;;;;;4933316;28;20243;-83
2022/02/04 12:51:46;;;;;;;8.05;6.70;;;9.00;1.00;;;;;;4935290;28;20215;-82
2022/02/04 13:31:08;;;;;;;6.32;5.72;;;9.10;1.00;;;;;;6219720;23;20199;-83
2022/02/04 13:51:47;;;;;;;9.25;6.38;;;9.20;1.00;;;;;;6108363;23;20963;-84
2022/02/04 14:01:54;;;;;;;7.27;5.50;;;9.30;1.00;;;;;;6222590;23;20315;-85
2022/02/04 14:08:28;;;;;;;7.27;5.27;;;9.40;1.00;;;;;;6192339;22;20453;-85
2022/02/04 14:15:01;;;;;;;5.38;4.45;;;9.50;1.00;;;;;;6159677;23;20253;-86
2022/02/04 14:18:04;;;;;;;5.27;4.70;;;9.50;1.00;;;;;;6185044;23;20913;-85
2022/02/04 14:32:38;;;;;;;8.23;5.15;;;9.30;1.00;;;;;;6215011;23;20372;-85
2022/02/04 14:36:12;;;;;;;5.25;3.95;;;9.30;1.00;;;;;;6224794;22;20528;-84
2022/02/04 14:54:02;;;;;;;6.15;3.83;;;8.90;1.00;;;;;;6120654;23;20621;-85
2022/02/04 15:16:08;;;;;;;3.20;2.45;;;9.00;1.00;;;;;;6102077;22;20456;-84
2022/02/04 15:23:32;;;;;;;5.90;3.45;;;8.90;1.00;;;;;;5984814;23;20376;-83
2022/02/04 15:27:17;;;;;;;3.47;2.70;;;8.90;1.00;;;;;;6170477;23;20198;-85
2022/02/04 16:26:21;;;;;;;;;;;;;;;;;;;;;
2022/02/04 16:29:16;;;;;;;5.47;1.67;;;8.60;1.00;;;;;;6046509;23;20260;-84
2022/02/04 16:59:23;;;;;;;2.50;1.80;;;8.50;1.00;;;;;;6015846;23;20202;-84
2022/02/04 17:10:54;;;;;;;2.42;1.60;;;8.50;1.00;;;;;;6066539;23;20510;-84
2022/02/04 17:14:37;;;;;;;3.60;2.28;;;8.50;1.00;;;;;;6094688;23;20205;-84
2022/02/04 17:48:23;;;;;;;3.37;2.00;;;8.50;1.00;;;;;;5978118;23;20223;-85
2022/02/04 18:02:53;;;;;;;;;;;;;;;;;;;;;
2022/02/04 18:09:47;;;;;;;2.22;1.80;;;8.30;1.00;;;;;;5991486;23;20199;-86
2022/02/04 18:20:56;;;;;;;;;;;;;;;;;;;;;
2022/02/04 18:27:29;;;;;;;2.67;1.65;;;8.30;1.00;;;;;;5990116;23;20245;-86
2022/02/04 18:34:55;;;;;;;2.88;1.88;;;8.30;1.00;;;;;;6030059;23;20751;-85
2022/02/04 18:45:34;;;;;;;2.65;1.75;;;8.20;1.00;;;;;;6045439;23;20300;-87
2022/02/04 18:49:23;;;;;;;3.05;2.10;;;8.20;1.00;;;;;;5891917;24;20598;-86
2022/02/04 18:53:09;;;;;;;3.88;1.80;;;8.20;1.00;;;;;;6087680;23;20254;-86
2022/02/04 19:22:31;;;;;;;2.00;1.60;;;8.10;1.00;;;;;;5980749;23;20215;-86
2022/02/04 19:32:27;;;;;;;4.05;1.77;;;8.10;1.00;;;;;;5939010;23;20285;-86
2022/02/04 20:47:02;;;;;;;2.72;2.20;;;7.10;1.00;;;;;;5918168;24;20230;-85
2022/02/04 22:08:35;;;;;;;2.90;1.90;;;6.70;1.00;;;;;;6040755;22;20989;-84
2022/02/04 22:15:55;;;;;;;1.63;1.10;;;6.30;1.00;;;;;;6253788;22;20465;-83
2022/02/04 22:22:49;;;;;;;2.63;1.75;;;5.60;1.00;;;;;;6213925;22;20204;-83
2022/02/04 22:26:15;;;;;;;;;;;;;;;;;;;;;
2022/02/04 22:33:10;;;;;;;1.90;1.40;;;4.90;1.00;;;;;;6115460;23;20283;-83
2022/02/04 22:57:12;;;;;;;1.70;1.00;;;4.10;1.00;;;;;;6234490;22;20458;-87
2022/02/04 23:00:59;;;;;;;1.90;1.40;;;4.10;1.00;;;;;;6247047;22;20193;-84
2022/02/04 23:08:14;;;;;;;2.65;1.45;;;4.00;1.00;;;;;;6023925;23;20201;-86
2022/02/04 23:11:07;;;;;;;;;;;;;;;;;;;;;
2022/02/04 23:14:22;;;;;;;2.50;1.58;;;3.90;1.00;;;;;;6088025;23;20204;-84
2022/02/04 23:21:52;;;;;;;2.30;1.40;;;3.80;1.00;;;;;;6041952;23;20232;-84
2022/02/04 23:28:36;;;;;;;2.17;1.30;;;3.70;1.00;;;;;;6117440;23;20215;-84
